Time;durP1;ratioP1;P1;durP2;ratioP2;P2;SDS_P1;SDS_P2;PMS_P1;PMS_P2;Temp;Humidity;BMP_temperature;BMP_pressure;BME280_temperature;BME280_humidity;BME280_pressure;Samples;Min_cycle;Max_cycle;Signal;HPM_P1;HPM_P2
2022/02/03 00:00:25;;;;;;;12.30;6.07;;;8.50;99.90;;;;;;5068180;28;20750;-66
2022/02/03 00:03:10;;;;;;;8.03;5.10;;;8.50;99.90;;;;;;5068145;28;20180;-66
2022/02/03 00:05:51;;;;;;;15.30;5.43;;;8.50;99.90;;;;;;5088981;28;20580;-66
2022/02/03 00:08:30;;;;;;;15.27;5.00;;;8.50;99.90;;;;;;5091165;28;20741;-66
2022/02/03 00:11:22;;;;;;;7.30;4.30;;;8.50;99.90;;;;;;5087429;28;20290;-66
2022/02/03 00:16:57;;;;;;;5.07;3.73;;;8.40;99.90;;;;;;5093350;28;20235;-65
2022/02/03 00:22:31;;;;;;;7.60;3.40;;;8.40;99.90;;;;;;5078092;28;20652;-66
2022/02/03 00:25:09;;;;;;;7.90;3.03;;;8.40;99.90;;;;;;5088817;28;20192;-66
2022/02/03 00:27:52;;;;;;;4.03;3.37;;;8.40;99.90;;;;;;5087957;28;20664;-66
2022/02/03 00:30:30;;;;;;;11.97;3.37;;;8.30;99.90;;;;;;5087416;28;20191;-66
2022/02/03 00:33:19;;;;;;;5.20;2.77;;;8.20;99.90;;;;;;5088280;28;20661;-67
2022/02/03 00:50:04;;;;;;;6.30;2.40;;;8.20;99.90;;;;;;5087631;28;20818;-67
2022/02/03 00:52:34;;;;;;;6.47;2.67;;;8.20;99.90;;;;;;5088797;28;20253;-66
2022/02/03 00:55:06;;;;;;;5.07;2.70;;;8.30;99.90;;;;;;5086933;28;20188;-66
2022/02/03 00:57:44;;;;;;;7.37;2.87;;;8.30;99.90;;;;;;5087469;28;21218;-66
2022/02/03 01:00:15;;;;;;;2.83;2.63;;;8.20;99.90;;;;;;5087295;28;20723;-66
2022/02/03 01:03:12;;;;;;;8.70;2.77;;;8.30;99.90;;;;;;5084956;28;20553;-67
2022/02/03 01:05:43;;;;;;;7.60;2.77;;;8.30;99.90;;;;;;5052170;28;20289;-66
2022/02/03 01:08:18;;;;;;;4.33;2.40;;;8.20;99.90;;;;;;5098100;28;20221;-66
2022/02/03 01:10:56;;;;;;;4.53;2.40;;;8.20;99.90;;;;;;5089237;28;20743;-66
2022/02/03 01:13:37;;;;;;;2.50;2.30;;;8.20;99.90;;;;;;5086682;28;20252;-66
2022/02/03 01:16:14;;;;;;;9.27;2.63;;;8.20;99.90;;;;;;5086917;28;20235;-66
2022/02/03 01:19:14;;;;;;;7.17;2.50;;;8.20;99.90;;;;;;5088506;28;20199;-66
2022/02/03 01:44:19;;;;;;;3.73;2.40;;;8.10;99.90;;;;;;5086994;28;20210;-65
2022/02/03 01:46:57;;;;;;;4.83;2.80;;;8.10;99.90;;;;;;5089175;28;20297;-65
2022/02/03 01:51:37;;;;;;;6.27;2.63;;;8.10;99.90;;;;;;5088304;28;20194;-65
2022/02/03 01:52:30;;;;;;;6.33;2.87;;;8.20;99.90;;;;;;5069336;28;20226;-66
2022/02/03 01:55:00;;;;;;;3.00;2.60;;;8.10;99.90;;;;;;5086875;28;20194;-64
2022/02/03 01:57:36;;;;;;;8.37;3.00;;;8.10;99.90;;;;;;5067943;28;20244;-65
2022/02/03 02:00:09;;;;;;;6.23;2.70;;;8.10;99.90;;;;;;5086377;28;20198;-66
2022/02/03 02:02:44;;;;;;;3.47;2.50;;;8.10;99.90;;;;;;5084195;28;20199;-66
2022/02/03 02:05:32;;;;;;;3.13;2.60;;;8.20;99.90;;;;;;5086415;28;20294;-64
2022/02/03 02:08:09;;;;;;;6.37;2.60;;;8.10;99.90;;;;;;5084436;28;20199;-65
2022/02/03 02:11:05;;;;;;;3.53;2.33;;;8.10;99.90;;;;;;5087186;28;20257;-66
2022/02/03 02:13:59;;;;;;;6.10;2.33;;;8.10;99.90;;;;;;5081305;28;20195;-66
2022/02/03 02:17:04;;;;;;;3.43;2.40;;;8.10;99.90;;;;;;5084212;28;20259;-65
2022/02/03 02:19:52;;;;;;;5.47;2.50;;;8.20;99.90;;;;;;5086935;28;20298;-65
2022/02/03 02:39:32;;;;;;;5.07;2.53;;;8.10;99.90;;;;;;5084388;28;20234;-65
2022/02/03 02:45:10;;;;;;;6.90;2.50;;;8.10;99.90;;;;;;5042439;28;20304;-65
2022/02/03 02:47:50;;;;;;;7.53;2.47;;;8.00;99.90;;;;;;5042723;28;20613;-65
2022/02/03 02:50:27;;;;;;;6.37;2.63;;;8.00;99.90;;;;;;5065985;28;20230;-65
2022/02/03 02:53:11;;;;;;;8.23;2.73;;;8.00;99.90;;;;;;5082956;28;20203;-65
2022/02/03 02:55:56;;;;;;;4.00;2.53;;;8.10;99.90;;;;;;5086429;28;20218;-65
2022/02/03 02:58:46;;;;;;;4.53;2.70;;;8.00;99.90;;;;;;5088294;28;20223;-65
2022/02/03 03:28:51;;;;;;;9.90;3.67;;;8.00;99.90;;;;;;5082260;28;20286;-66
2022/02/03 03:29:54;;;;;;;14.53;7.37;;;8.00;99.90;;;;;;5087320;28;20187;-65
2022/02/03 03:32:40;;;;;;;16.03;7.13;;;8.00;99.90;;;;;;5086406;28;20273;-65
2022/02/03 03:35:27;;;;;;;13.83;7.20;;;8.10;99.90;;;;;;5083152;28;20218;-65
2022/02/03 03:37:59;;;;;;;15.80;7.97;;;8.10;99.90;;;;;;5083953;28;20217;-66
2022/02/03 03:40:31;;;;;;;18.10;8.80;;;8.10;99.90;;;;;;5088909;28;20195;-65
2022/02/03 03:43:06;;;;;;;20.83;9.37;;;8.00;99.90;;;;;;5082794;28;20211;-65
2022/02/03 03:45:38;;;;;;;12.60;8.40;;;8.00;99.90;;;;;;5085893;28;20231;-65
2022/02/03 03:48:09;;;;;;;15.60;7.77;;;8.00;99.90;;;;;;5085767;28;20306;-64
2022/02/03 03:50:40;;;;;;;15.20;7.63;;;8.10;99.90;;;;;;5089498;28;20226;-65
2022/02/03 03:53:21;;;;;;;11.63;7.37;;;8.10;99.90;;;;;;5087794;28;21797;-65
2022/02/03 03:55:57;;;;;;;13.33;7.60;;;8.10;99.90;;;;;;5090975;28;20571;-66
2022/02/03 04:34:36;;;;;;;12.17;7.13;;;8.00;99.90;;;;;;5084773;28;20199;-65
2022/02/03 04:55:24;;;;;;;15.77;8.03;;;7.90;99.90;;;;;;5088409;28;20649;-65
2022/02/03 05:04:12;;;;;;;11.07;7.80;;;7.90;99.90;;;;;;5054135;28;20221;-65
2022/02/03 05:07:07;;;;;;;17.13;8.60;;;7.90;99.90;;;;;;5086168;28;20653;-65
2022/02/03 05:10:03;;;;;;;16.63;8.20;;;7.90;99.90;;;;;;5097895;28;20234;-65
2022/02/03 05:12:55;;;;;;;17.70;8.27;;;7.90;99.90;;;;;;5089618;28;20230;-65
2022/02/03 05:18:58;;;;;;;9.97;8.33;;;7.90;99.90;;;;;;5084291;28;20210;-66
2022/02/03 05:22:36;;;;;;;13.87;8.73;;;7.90;99.90;;;;;;5087032;28;20221;-65
2022/02/03 05:25:30;;;;;;;17.03;9.00;;;7.80;99.90;;;;;;5085240;28;20547;-66
2022/02/03 05:43:45;;;;;;;13.50;9.37;;;7.80;99.90;;;;;;5061910;28;20260;-66
2022/02/03 05:46:38;;;;;;;11.67;8.73;;;7.80;99.90;;;;;;5082789;28;20198;-66
2022/02/03 05:49:51;;;;;;;17.03;8.70;;;7.80;99.90;;;;;;5086397;28;20322;-66
2022/02/03 06:07:16;;;;;;;18.00;8.07;;;7.80;99.90;;;;;;5084263;28;20191;-66
2022/02/03 06:12:57;;;;;;;13.70;8.60;;;7.80;99.90;;;;;;5085786;28;20555;-65
2022/02/03 06:15:34;;;;;;;12.93;8.00;;;7.80;99.90;;;;;;5080689;28;20196;-66
2022/02/03 06:23:49;;;;;;;19.37;9.20;;;7.70;99.90;;;;;;5085789;28;20199;-65
2022/02/03 06:29:08;;;;;;;13.97;9.50;;;7.70;99.90;;;;;;5081333;28;20199;-66
2022/02/03 06:31:36;;;;;;;14.40;9.37;;;7.70;99.90;;;;;;5084754;28;20657;-66
2022/02/03 06:34:05;;;;;;;22.57;9.23;;;7.70;99.90;;;;;;5081774;28;20679;-66
2022/02/03 06:36:37;;;;;;;15.07;8.87;;;7.70;99.90;;;;;;5084714;28;20601;-65
2022/02/03 06:39:14;;;;;;;16.23;8.77;;;7.70;99.90;;;;;;5082057;28;20252;-65
2022/02/03 06:41:42;;;;;;;17.13;8.33;;;7.70;99.90;;;;;;5083953;28;20675;-66
2022/02/03 06:44:13;;;;;;;16.43;8.17;;;7.70;99.90;;;;;;5083981;28;20272;-66
2022/02/03 06:46:46;;;;;;;14.17;7.97;;;7.70;99.90;;;;;;5083452;28;20580;-65
2022/02/03 06:49:20;;;;;;;12.53;7.80;;;7.60;99.90;;;;;;5086869;28;20192;-66
2022/02/03 06:51:56;;;;;;;11.60;7.80;;;7.70;99.90;;;;;;5084184;28;20579;-66
2022/02/03 06:54:34;;;;;;;13.90;7.30;;;7.70;99.90;;;;;;5066430;28;20831;-64
2022/02/03 06:57:07;;;;;;;11.73;7.40;;;7.70;99.90;;;;;;5082669;28;20569;-66
2022/02/03 06:59:43;;;;;;;16.87;7.33;;;7.60;99.90;;;;;;5084810;28;20207;-66
2022/02/03 07:02:11;;;;;;;12.10;6.70;;;7.60;99.90;;;;;;5082839;28;20696;-66
2022/02/03 07:04:44;;;;;;;14.90;7.00;;;7.60;99.90;;;;;;5085742;28;20207;-67
2022/02/03 07:07:17;;;;;;;11.40;6.43;;;7.70;99.90;;;;;;5085532;28;20677;-66
2022/02/03 07:09:49;;;;;;;16.67;7.03;;;7.60;99.90;;;;;;5088200;28;20301;-66
2022/02/03 07:12:18;;;;;;;12.10;5.80;;;7.60;99.90;;;;;;5084890;28;20195;-66
2022/02/03 07:14:48;;;;;;;10.33;5.90;;;7.60;99.90;;;;;;5088154;28;20195;-66
2022/02/03 07:17:16;;;;;;;11.57;5.57;;;7.60;99.90;;;;;;5085114;28;20842;-67
2022/02/03 07:19:48;;;;;;;12.13;5.37;;;7.60;99.90;;;;;;5086244;28;20730;-66
2022/02/03 07:22:18;;;;;;;8.13;5.30;;;7.60;99.90;;;;;;5087635;28;20374;-66
2022/02/03 07:24:51;;;;;;;12.43;5.30;;;7.60;99.90;;;;;;5087328;28;20257;-66
2022/02/03 07:27:21;;;;;;;7.07;4.70;;;7.60;99.90;;;;;;5087680;28;20218;-66
2022/02/03 07:29:49;;;;;;;10.17;4.50;;;7.60;99.90;;;;;;5088124;28;20633;-65
2022/02/03 07:32:18;;;;;;;11.53;4.90;;;7.60;99.90;;;;;;5083051;28;20710;-66
2022/02/03 07:34:47;;;;;;;9.97;4.43;;;7.60;99.90;;;;;;5084119;28;20203;-66
2022/02/03 07:37:16;;;;;;;11.07;4.70;;;7.60;99.90;;;;;;5079120;28;20204;-65
2022/02/03 07:39:46;;;;;;;9.03;4.40;;;7.60;99.90;;;;;;5078016;28;20679;-65
2022/02/03 07:42:15;;;;;;;10.87;5.30;;;7.60;99.90;;;;;;5083882;28;20215;-65
2022/02/03 07:44:43;;;;;;;8.63;4.90;;;7.60;99.90;;;;;;5069983;28;20683;-65
2022/02/03 07:47:15;;;;;;;12.17;5.40;;;7.60;99.90;;;;;;5071976;28;20971;-65
2022/02/03 07:49:44;;;;;;;8.57;5.40;;;7.60;99.90;;;;;;5080884;28;20192;-65
2022/02/03 07:52:13;;;;;;;11.73;5.70;;;7.60;99.90;;;;;;5083106;28;20706;-65
2022/02/03 07:54:43;;;;;;;10.47;5.13;;;7.60;99.90;;;;;;5081959;28;20261;-65
2022/02/03 07:57:11;;;;;;;9.63;5.20;;;7.60;99.90;;;;;;5082649;28;20660;-65
2022/02/03 07:59:40;;;;;;;9.33;4.97;;;7.60;99.90;;;;;;5083280;28;20205;-65
2022/02/03 08:02:08;;;;;;;9.60;5.17;;;7.50;99.90;;;;;;5080375;28;20219;-64
2022/02/03 08:04:43;;;;;;;12.57;5.50;;;7.50;99.90;;;;;;5083813;28;20499;-65
2022/02/03 08:07:14;;;;;;;22.73;12.17;;;7.50;99.90;;;;;;5078978;28;20200;-66
2022/02/03 08:09:52;;;;;;;19.77;9.60;;;7.60;99.90;;;;;;5080777;28;20208;-65
2022/02/03 08:12:24;;;;;;;20.30;8.73;;;7.60;99.90;;;;;;5080223;28;20191;-65
2022/02/03 08:14:54;;;;;;;14.47;7.90;;;7.60;99.90;;;;;;5074538;28;20200;-66
2022/02/03 08:17:28;;;;;;;13.03;7.87;;;7.50;99.90;;;;;;5074750;28;20231;-66
2022/02/03 08:20:01;;;;;;;9.40;5.67;;;7.50;99.90;;;;;;5080111;28;20203;-64
2022/02/03 08:22:35;;;;;;;16.47;7.00;;;7.50;99.90;;;;;;5082905;28;20217;-65
2022/02/03 08:25:13;;;;;;;12.57;5.57;;;7.60;99.90;;;;;;5084911;28;20706;-65
2022/02/03 08:28:04;;;;;;;9.43;6.53;;;7.60;99.90;;;;;;5078560;28;20207;-65
2022/02/03 08:30:46;;;;;;;11.50;5.90;;;7.60;99.90;;;;;;5080494;28;20229;-65
2022/02/03 08:33:18;;;;;;;12.33;7.60;;;7.60;99.90;;;;;;5082959;28;20187;-65
2022/02/03 08:35:50;;;;;;;14.57;6.00;;;7.60;99.90;;;;;;5083967;28;20203;-65
2022/02/03 08:38:22;;;;;;;14.53;5.70;;;7.50;99.90;;;;;;5084416;28;20204;-64
2022/02/03 08:41:02;;;;;;;13.27;5.43;;;7.50;99.90;;;;;;5085336;28;20203;-67
2022/02/03 08:43:32;;;;;;;11.93;5.47;;;7.60;99.90;;;;;;5087394;28;20255;-66
2022/02/03 08:46:03;;;;;;;12.80;5.57;;;7.50;99.90;;;;;;5086376;28;20207;-66
2022/02/03 08:48:31;;;;;;;15.03;6.60;;;7.50;99.90;;;;;;5085898;28;20203;-66
2022/02/03 08:51:00;;;;;;;10.80;5.30;;;7.50;99.90;;;;;;5083159;28;20203;-65
2022/02/03 08:53:33;;;;;;;10.83;5.60;;;7.50;99.90;;;;;;5087743;28;20207;-65
2022/02/03 08:56:16;;;;;;;13.10;5.50;;;7.50;99.90;;;;;;5084711;28;20203;-65
2022/02/03 09:38:38;;;;;;;14.77;6.13;;;7.50;99.90;;;;;;5082690;28;20325;-65
2022/02/03 09:55:25;;;;;;;13.17;6.30;;;7.50;99.90;;;;;;5070295;28;20192;-65
2022/02/03 09:57:59;;;;;;;8.97;5.60;;;7.50;99.90;;;;;;5082113;28;20207;-65
2022/02/03 10:00:39;;;;;;;13.13;5.83;;;7.50;99.90;;;;;;5082717;28;20203;-67
2022/02/03 10:03:15;;;;;;;22.50;6.40;;;7.60;99.90;;;;;;5084525;28;20758;-65
2022/02/03 10:06:01;;;;;;;10.13;6.07;;;7.60;99.90;;;;;;5083546;28;20248;-66
2022/02/03 10:08:30;;;;;;;13.60;6.17;;;7.60;99.90;;;;;;5078731;28;20195;-65
2022/02/03 10:11:15;;;;;;;13.03;6.23;;;7.70;99.90;;;;;;5087920;28;20204;-66
2022/02/03 10:13:45;;;;;;;10.60;6.27;;;7.80;99.90;;;;;;5083501;28;20191;-66
2022/02/03 10:16:15;;;;;;;11.57;6.00;;;7.80;99.90;;;;;;5083744;28;20231;-66
2022/02/03 10:18:47;;;;;;;15.83;7.07;;;7.90;99.90;;;;;;5085051;28;20957;-65
2022/02/03 10:21:18;;;;;;;18.03;8.70;;;7.90;99.90;;;;;;5081713;28;20199;-65
2022/02/03 10:23:59;;;;;;;13.67;6.53;;;7.90;99.90;;;;;;5082485;28;20249;-65
2022/02/03 10:26:37;;;;;;;18.03;7.03;;;7.90;99.90;;;;;;5080061;28;20199;-64
2022/02/03 10:29:07;;;;;;;15.93;7.10;;;7.80;99.90;;;;;;5082696;28;20202;-65
2022/02/03 10:31:38;;;;;;;11.93;6.37;;;7.90;99.90;;;;;;5079337;28;20241;-65
2022/02/03 10:34:20;;;;;;;12.30;6.27;;;7.90;99.90;;;;;;5086744;28;20190;-65
2022/02/03 10:36:56;;;;;;;13.73;6.67;;;7.90;99.90;;;;;;5082272;28;20196;-65
2022/02/03 10:42:29;;;;;;;13.67;6.20;;;7.90;99.90;;;;;;5080536;28;20196;-66
2022/02/03 10:45:09;;;;;;;16.43;6.40;;;7.90;99.90;;;;;;5083673;28;20318;-65
2022/02/03 10:51:08;;;;;;;15.73;5.77;;;7.90;99.90;;;;;;5079503;28;20237;-64
2022/02/03 10:53:51;;;;;;;17.00;5.83;;;8.00;99.90;;;;;;5080319;28;20195;-65
2022/02/03 10:56:39;;;;;;;13.37;5.50;;;8.10;99.90;;;;;;5078811;28;20183;-65
2022/02/03 11:02:22;;;;;;;19.80;5.77;;;8.30;99.90;;;;;;5087232;28;20203;-65
2022/02/03 11:05:17;;;;;;;18.50;5.60;;;8.30;99.90;;;;;;5083203;28;20227;-65
2022/02/03 11:07:53;;;;;;;12.97;5.80;;;8.40;99.90;;;;;;5083088;28;20198;-65
2022/02/03 11:10:33;;;;;;;14.97;5.97;;;8.40;99.90;;;;;;5085736;28;20258;-65
2022/02/03 11:13:04;;;;;;;15.20;5.93;;;8.50;99.90;;;;;;5083869;28;20248;-66
2022/02/03 11:15:34;;;;;;;17.33;6.30;;;8.60;99.90;;;;;;5079218;28;20291;-64
2022/02/03 11:18:06;;;;;;;10.30;6.50;;;8.60;99.90;;;;;;5085662;28;20264;-66
2022/02/03 11:20:39;;;;;;;12.17;5.20;;;8.70;99.90;;;;;;5067110;28;20183;-65
2022/02/03 11:23:22;;;;;;;15.30;5.67;;;8.70;99.90;;;;;;5079449;28;20215;-65
2022/02/03 11:26:03;;;;;;;12.40;5.40;;;8.80;99.90;;;;;;5084034;28;20199;-65
2022/02/03 11:28:56;;;;;;;15.77;6.07;;;8.70;99.90;;;;;;5087769;28;20561;-65
2022/02/03 11:37:45;;;;;;;15.40;5.67;;;8.70;99.90;;;;;;5080095;28;20191;-67
2022/02/03 11:40:35;;;;;;;13.17;5.70;;;8.70;99.90;;;;;;5083081;28;20207;-66
2022/02/03 11:46:35;;;;;;;11.13;5.80;;;8.70;99.90;;;;;;5095032;28;20196;-65
2022/02/03 11:49:26;;;;;;;13.37;5.90;;;8.60;99.90;;;;;;5079715;28;20200;-66
2022/02/03 11:55:23;;;;;;;14.60;6.17;;;8.60;99.90;;;;;;5082257;28;20290;-65
2022/02/03 11:58:10;;;;;;;21.53;6.33;;;8.60;99.90;;;;;;5077479;28;20191;-64
2022/02/03 12:03:54;;;;;;;13.63;5.53;;;8.60;99.90;;;;;;5060119;28;20313;-65
2022/02/03 12:12:46;;;;;;;13.07;5.60;;;8.40;99.90;;;;;;5086118;28;20588;-66
2022/02/03 12:18:10;;;;;;;12.20;5.83;;;8.20;99.90;;;;;;5075762;28;20784;-65
2022/02/03 12:20:47;;;;;;;18.17;6.10;;;8.20;99.90;;;;;;5088700;28;20203;-65
2022/02/03 12:23:41;;;;;;;16.53;6.13;;;8.10;99.90;;;;;;5087478;28;20187;-66
2022/02/03 12:26:17;;;;;;;13.77;6.33;;;8.00;99.90;;;;;;5086533;28;20261;-65
2022/02/03 12:28:53;;;;;;;14.93;6.63;;;8.00;99.90;;;;;;5088637;28;20273;-66
2022/02/03 12:37:19;;;;;;;11.73;6.70;;;8.10;99.90;;;;;;5085192;28;20191;-66
2022/02/03 12:39:56;;;;;;;14.20;6.83;;;8.20;99.90;;;;;;5088483;28;20207;-66
2022/02/03 12:45:17;;;;;;;14.97;7.03;;;8.10;99.90;;;;;;5086541;28;20211;-66
2022/02/03 12:47:49;;;;;;;13.17;6.80;;;8.10;99.90;;;;;;5087568;28;20220;-66
2022/02/03 12:50:24;;;;;;;22.07;8.60;;;8.10;99.90;;;;;;5088410;28;20252;-66
2022/02/03 12:52:53;;;;;;;18.60;7.37;;;8.00;99.90;;;;;;5087784;28;20267;-66
2022/02/03 12:55:29;;;;;;;15.60;7.33;;;8.10;99.90;;;;;;5083295;28;20188;-66
2022/02/03 12:58:00;;;;;;;13.83;7.20;;;8.00;99.90;;;;;;5091038;28;20245;-66
2022/02/03 13:00:38;;;;;;;18.13;9.03;;;7.90;99.90;;;;;;5086990;28;20279;-66
2022/02/03 13:03:32;;;;;;;18.87;7.57;;;7.90;99.90;;;;;;5085651;28;20191;-66
2022/02/03 13:06:03;;;;;;;13.57;7.73;;;8.00;99.90;;;;;;5089069;28;20202;-64
2022/02/03 13:08:33;;;;;;;14.03;7.37;;;8.00;99.90;;;;;;5081445;28;20183;-66
2022/02/03 13:11:16;;;;;;;27.47;17.67;;;8.00;99.90;;;;;;5089513;28;20199;-66
2022/02/03 13:13:57;;;;;;;23.57;12.20;;;8.00;99.90;;;;;;5071786;28;20188;-66
2022/02/03 13:16:26;;;;;;;32.33;19.93;;;8.00;99.90;;;;;;5076946;28;20265;-66
2022/02/03 13:19:07;;;;;;;78.37;46.80;;;8.20;99.90;;;;;;5088546;28;20287;-66
2022/02/03 13:21:51;;;;;;;26.70;19.20;;;8.30;99.90;;;;;;5088871;28;20634;-65
2022/02/03 13:24:39;;;;;;;66.17;37.77;;;8.30;99.90;;;;;;5087867;28;20680;-66
2022/02/03 13:27:17;;;;;;;39.90;25.57;;;8.50;99.90;;;;;;5083947;28;20836;-66
2022/02/03 13:30:00;;;;;;;22.20;11.27;;;8.60;99.90;;;;;;5087311;28;20649;-65
2022/02/03 13:32:35;;;;;;;49.83;27.77;;;8.50;99.90;;;;;;5082793;28;20256;-65
2022/02/03 13:35:22;;;;;;;31.13;20.10;;;8.40;99.90;;;;;;5088995;28;20682;-65
2022/02/03 13:37:53;;;;;;;17.53;9.20;;;8.20;99.90;;;;;;5066167;28;20221;-66
2022/02/03 13:40:23;;;;;;;21.30;9.67;;;8.20;99.90;;;;;;5089135;28;20229;-65
2022/02/03 13:42:59;;;;;;;30.03;18.83;;;8.20;99.90;;;;;;5089782;28;20195;-66
2022/02/03 13:45:28;;;;;;;33.20;22.23;;;8.10;99.90;;;;;;5086088;28;20853;-66
2022/02/03 13:47:57;;;;;;;18.80;10.40;;;8.10;99.90;;;;;;5082326;28;20204;-65
2022/02/03 13:50:29;;;;;;;25.33;11.17;;;8.00;99.90;;;;;;5090248;28;20207;-65
2022/02/03 13:53:19;;;;;;;20.53;10.57;;;7.90;99.90;;;;;;5085332;28;20207;-65
2022/02/03 14:19:01;;;;;;;26.30;11.63;;;7.60;99.90;;;;;;5082567;28;20665;-65
2022/02/03 14:21:36;;;;;;;25.17;13.60;;;7.60;99.90;;;;;;5086560;28;21085;-65
2022/02/03 14:27:15;;;;;;;20.33;13.23;;;7.70;99.90;;;;;;5085199;28;20282;-65
2022/02/03 14:29:47;;;;;;;23.57;14.23;;;7.70;99.90;;;;;;5083673;28;20649;-65
2022/02/03 14:32:21;;;;;;;25.90;15.63;;;7.70;99.90;;;;;;5075633;28;20195;-65
2022/02/03 14:34:51;;;;;;;25.87;15.27;;;7.70;99.90;;;;;;5086333;28;20653;-65
2022/02/03 14:37:28;;;;;;;34.63;18.33;;;7.70;99.90;;;;;;5084981;28;20298;-65
2022/02/03 14:40:13;;;;;;;29.87;19.03;;;7.70;99.90;;;;;;5089045;28;20195;-66
2022/02/03 14:42:43;;;;;;;21.97;13.60;;;7.70;99.90;;;;;;5082114;28;20722;-66
2022/02/03 14:45:14;;;;;;;26.50;14.73;;;7.70;99.90;;;;;;5077590;28;20216;-64
2022/02/03 14:47:43;;;;;;;25.30;14.50;;;7.70;99.90;;;;;;5083636;28;20199;-65
2022/02/03 14:50:13;;;;;;;25.27;15.97;;;7.60;99.90;;;;;;5087343;28;20214;-65
2022/02/03 14:52:56;;;;;;;25.43;14.93;;;7.60;99.90;;;;;;5085586;28;20195;-65
2022/02/03 14:58:21;;;;;;;26.13;13.87;;;7.70;99.90;;;;;;5083244;28;20260;-66
2022/02/03 15:00:49;;;;;;;24.37;12.83;;;7.70;99.90;;;;;;5067057;28;20652;-65
2022/02/03 15:03:20;;;;;;;25.97;12.43;;;7.70;99.90;;;;;;5080470;28;20183;-65
2022/02/03 15:05:53;;;;;;;28.70;14.13;;;7.80;99.90;;;;;;5085054;28;20310;-66
2022/02/03 15:08:43;;;;;;;21.17;12.83;;;7.80;99.90;;;;;;5078104;28;20199;-65
2022/02/03 15:11:23;;;;;;;20.97;12.90;;;7.80;99.90;;;;;;5085137;28;20203;-65
2022/02/03 15:13:52;;;;;;;18.87;12.47;;;7.80;99.90;;;;;;5076629;28;20733;-65
2022/02/03 15:16:20;;;;;;;21.73;12.80;;;7.80;99.90;;;;;;5083331;28;20241;-65
2022/02/03 15:19:09;;;;;;;20.43;13.10;;;7.80;99.90;;;;;;5082026;28;20886;-65
2022/02/03 15:21:39;;;;;;;21.93;13.07;;;7.80;99.90;;;;;;5085340;28;20195;-65
2022/02/03 15:24:07;;;;;;;23.93;15.13;;;7.80;99.90;;;;;;5084166;28;20195;-65
2022/02/03 15:26:38;;;;;;;23.17;13.87;;;7.80;99.90;;;;;;5085204;28;20260;-65
2022/02/03 15:29:07;;;;;;;23.63;14.83;;;7.70;99.90;;;;;;5078965;28;20274;-65
2022/02/03 15:31:35;;;;;;;22.10;14.20;;;7.80;99.90;;;;;;5081380;28;20199;-65
2022/02/03 15:34:24;;;;;;;24.27;16.00;;;7.80;99.90;;;;;;5087560;28;20290;-65
2022/02/03 15:36:55;;;;;;;21.57;15.07;;;7.80;99.90;;;;;;5089805;28;20191;-65
2022/02/03 15:39:34;;;;;;;21.97;14.93;;;7.80;99.90;;;;;;5084831;28;20202;-65
2022/02/03 15:42:05;;;;;;;26.80;16.57;;;7.80;99.90;;;;;;5089182;28;20203;-66
2022/02/03 15:44:39;;;;;;;25.23;16.00;;;7.70;99.90;;;;;;5087721;28;20203;-66
2022/02/03 15:47:18;;;;;;;30.47;17.87;;;7.70;99.90;;;;;;5069833;28;20229;-66
2022/02/03 16:01:28;;;;;;;26.00;16.90;;;7.60;99.90;;;;;;5078489;28;20226;-65
2022/02/03 16:04:23;;;;;;;29.07;18.43;;;7.70;99.90;;;;;;5085405;28;20200;-66
2022/02/03 16:17:58;;;;;;;26.03;18.23;;;7.70;99.90;;;;;;5089094;28;20660;-65
2022/02/03 16:20:32;;;;;;;23.20;15.73;;;7.70;99.90;;;;;;5089228;28;20207;-65
2022/02/03 16:23:10;;;;;;;20.33;14.90;;;7.70;99.90;;;;;;5089169;28;20922;-65
2022/02/03 16:51:00;;;;;;;19.03;12.10;;;7.70;99.90;;;;;;5083233;28;20215;-66
2022/02/03 16:53:28;;;;;;;20.10;13.10;;;7.70;99.90;;;;;;5085368;28;20199;-67
2022/02/03 16:55:59;;;;;;;21.17;15.53;;;7.70;99.90;;;;;;5084686;28;20196;-66
2022/02/03 16:58:32;;;;;;;23.07;14.10;;;7.70;99.90;;;;;;5084422;28;20187;-66
2022/02/03 17:01:01;;;;;;;17.90;14.07;;;7.70;99.90;;;;;;5089179;28;20253;-66
2022/02/03 17:03:31;;;;;;;20.23;12.53;;;7.60;99.90;;;;;;5084893;28;20188;-65
2022/02/03 17:05:59;;;;;;;22.20;13.30;;;7.70;99.90;;;;;;5085422;28;20247;-66
2022/02/03 17:08:28;;;;;;;19.53;12.67;;;7.60;99.90;;;;;;5086298;28;20215;-66
2022/02/03 17:10:56;;;;;;;19.63;13.30;;;7.60;99.90;;;;;;5089123;28;20291;-66
2022/02/03 17:13:25;;;;;;;23.13;14.27;;;7.60;99.90;;;;;;5082375;28;20286;-66
2022/02/03 17:15:54;;;;;;;27.37;16.07;;;7.60;99.90;;;;;;5085871;28;20199;-66
2022/02/03 17:18:22;;;;;;;23.77;14.97;;;7.60;99.90;;;;;;5087367;28;20197;-67
2022/02/03 17:20:52;;;;;;;23.33;16.03;;;7.50;99.90;;;;;;5088977;28;20207;-66
2022/02/03 17:23:23;;;;;;;25.30;15.63;;;7.50;99.90;;;;;;5086166;28;20196;-66
2022/02/03 17:26:01;;;;;;;28.90;16.80;;;7.50;99.90;;;;;;5085757;28;20268;-66
2022/02/03 17:28:46;;;;;;;29.43;17.33;;;7.50;99.90;;;;;;5085699;28;20195;-66
2022/02/03 17:31:21;;;;;;;26.70;17.60;;;7.50;99.90;;;;;;5086301;28;20204;-66
2022/02/03 17:45:26;;;;;;;31.47;18.43;;;7.40;99.90;;;;;;5086141;28;20195;-66
2022/02/03 18:08:17;;;;;;;31.53;19.90;;;7.40;99.90;;;;;;5055041;28;20242;-66
2022/02/03 18:10:49;;;;;;;37.50;20.90;;;7.40;99.90;;;;;;5085560;28;20292;-66
2022/02/03 18:30:15;;;;;;;30.23;17.87;;;7.40;99.90;;;;;;5078208;28;20199;-65
2022/02/03 18:32:55;;;;;;;26.73;17.60;;;7.40;99.90;;;;;;5080503;28;20187;-65
2022/02/03 18:35:49;;;;;;;28.83;16.57;;;7.40;99.90;;;;;;5085357;28;20256;-65
2022/02/03 18:52:27;;;;;;;34.80;17.33;;;7.50;99.90;;;;;;5081644;28;20297;-65
2022/02/03 18:55:08;;;;;;;29.03;17.57;;;7.50;99.90;;;;;;5081402;28;20649;-65
2022/02/03 18:57:46;;;;;;;26.90;17.27;;;7.50;99.90;;;;;;5081457;28;20264;-65
2022/02/03 19:00:39;;;;;;;29.00;17.43;;;7.40;99.90;;;;;;5070065;28;20191;-65
2022/02/03 19:03:25;;;;;;;28.23;16.70;;;7.50;99.90;;;;;;5082777;28;20203;-65
2022/02/03 19:56:46;;;;;;;36.07;20.77;;;7.30;99.90;;;;;;5079862;28;20196;-65
2022/02/03 20:02:17;;;;;;;32.10;19.43;;;7.40;99.90;;;;;;5082947;28;20211;-65
2022/02/03 20:04:56;;;;;;;39.47;22.50;;;7.30;99.90;;;;;;5085008;28;21098;-65
2022/02/03 20:07:32;;;;;;;31.17;18.43;;;7.30;99.90;;;;;;5083829;28;20260;-65
2022/02/03 20:10:15;;;;;;;36.03;18.83;;;7.40;99.90;;;;;;5086031;28;20199;-65
2022/02/03 20:12:43;;;;;;;35.37;18.50;;;7.40;99.90;;;;;;5083003;28;20238;-66
2022/02/03 20:15:13;;;;;;;33.27;19.63;;;7.40;99.90;;;;;;5084873;28;20204;-66
2022/02/03 20:17:41;;;;;;;41.07;20.77;;;7.50;99.90;;;;;;5062109;28;20250;-65
2022/02/03 20:20:10;;;;;;;32.23;19.23;;;7.40;99.90;;;;;;5082026;28;20264;-65
2022/02/03 20:22:40;;;;;;;33.97;21.27;;;7.50;99.90;;;;;;5085821;28;20218;-65
2022/02/03 20:25:13;;;;;;;29.53;17.07;;;7.50;99.90;;;;;;5082629;28;20191;-65
2022/02/03 20:27:42;;;;;;;31.03;17.27;;;7.50;99.90;;;;;;5083393;28;20304;-66
2022/02/03 20:30:12;;;;;;;29.20;17.40;;;7.50;99.90;;;;;;5086333;28;20558;-65
2022/02/03 20:32:41;;;;;;;32.67;19.53;;;7.60;99.90;;;;;;5082475;28;21378;-64
2022/02/03 20:35:11;;;;;;;31.00;19.10;;;7.60;99.90;;;;;;5085171;28;20279;-65
2022/02/03 20:37:41;;;;;;;28.93;17.30;;;7.60;99.90;;;;;;5064109;28;20618;-66
2022/02/03 20:40:11;;;;;;;28.03;17.40;;;7.60;99.90;;;;;;5084656;28;20696;-66
2022/02/03 20:42:40;;;;;;;28.80;17.20;;;7.50;99.90;;;;;;5077505;28;20202;-66
2022/02/03 20:45:10;;;;;;;29.77;19.83;;;7.50;99.90;;;;;;5086568;28;20203;-66
2022/02/03 20:47:38;;;;;;;28.33;16.07;;;7.50;99.90;;;;;;5087899;28;20297;-66
2022/02/03 20:50:12;;;;;;;30.37;18.10;;;7.60;99.90;;;;;;5087982;28;20223;-66
2022/02/03 20:52:42;;;;;;;30.40;17.97;;;7.50;99.90;;;;;;5090621;28;20223;-66
2022/02/03 20:55:11;;;;;;;28.47;16.47;;;7.50;99.90;;;;;;5086557;28;20206;-67
2022/02/03 20:57:39;;;;;;;29.43;17.03;;;7.60;99.90;;;;;;5087403;28;20196;-66
2022/02/03 21:00:18;;;;;;;29.20;17.20;;;7.60;99.90;;;;;;5089780;28;20915;-66
2022/02/03 21:02:52;;;;;;;26.97;16.80;;;7.60;99.90;;;;;;5087558;28;20211;-66
2022/02/03 21:05:21;;;;;;;25.87;16.27;;;7.60;99.90;;;;;;5076732;28;20210;-66
2022/02/03 21:07:52;;;;;;;25.40;15.80;;;7.60;99.90;;;;;;5070528;28;20226;-66
2022/02/03 21:10:26;;;;;;;25.97;16.37;;;7.60;99.90;;;;;;5088417;28;20207;-66
2022/02/03 21:12:55;;;;;;;27.63;17.10;;;7.60;99.90;;;;;;5057113;28;20306;-66
2022/02/03 21:15:29;;;;;;;29.37;17.17;;;7.60;99.90;;;;;;5083828;28;20856;-66
2022/02/03 21:18:01;;;;;;;31.17;17.67;;;7.60;99.90;;;;;;5087173;28;20224;-66
2022/02/03 21:20:30;;;;;;;29.83;17.83;;;7.60;99.90;;;;;;5100615;28;20720;-65
2022/02/03 21:22:59;;;;;;;26.17;15.43;;;7.60;99.90;;;;;;5086009;28;20225;-66
2022/02/03 21:25:31;;;;;;;26.10;16.17;;;7.60;99.90;;;;;;5083209;28;20278;-66
2022/02/03 21:28:08;;;;;;;25.93;16.47;;;7.60;99.90;;;;;;5085806;28;20226;-66
2022/02/03 21:30:39;;;;;;;26.07;16.07;;;7.70;99.90;;;;;;5076424;28;20195;-66
2022/02/03 21:33:12;;;;;;;27.77;16.20;;;7.60;99.90;;;;;;5083405;28;20187;-66
2022/02/03 21:35:41;;;;;;;26.30;17.93;;;7.60;99.90;;;;;;5085886;28;20235;-66